createdAt,value
2019-05-17T00:03:33.427Z,19.70
2019-05-17T00:08:38.529Z,17.35
2019-05-17T00:13:43.410Z,17.33
2019-05-17T00:18:48.209Z,17.03
2019-05-17T00:23:52.660Z,19.87
2019-05-17T00:28:57.859Z,20.60
2019-05-17T00:34:02.487Z,19.37
2019-05-17T00:39:07.709Z,18.07
2019-05-17T00:44:12.481Z,18.53
2019-05-17T00:49:17.299Z,21.63
2019-05-17T00:54:22.930Z,19.30
2019-05-17T00:59:27.711Z,20.23
2019-05-17T01:04:32.550Z,22.25
2019-05-17T01:09:37.784Z,20.90
2019-05-17T01:14:42.905Z,23.67
2019-05-17T01:19:48.208Z,22.17
2019-05-17T01:24:52.672Z,20.87
2019-05-17T01:29:57.408Z,19.70
2019-05-17T01:35:02.277Z,20.77
2019-05-17T01:40:08.229Z,19.77
2019-05-17T01:45:16.808Z,20.33
2019-05-17T01:50:21.928Z,21.90
2019-05-17T01:55:26.643Z,18.63
2019-05-17T02:00:32.147Z,17.33
2019-05-17T02:05:37.498Z,23.43
2019-05-17T02:10:42.181Z,24.77
2019-05-17T02:15:47.332Z,24.67
2019-05-17T02:20:52.786Z,23.97
2019-05-17T02:25:57.974Z,22.10
2019-05-17T02:31:03.578Z,26.07
2019-05-17T02:36:08.429Z,30.87
2019-05-17T02:41:14.394Z,25.10
2019-05-17T02:46:19.310Z,28.80
2019-05-17T02:51:24.226Z,29.77
2019-05-17T02:56:28.664Z,27.30
2019-05-17T03:01:33.670Z,45.87
2019-05-17T03:06:38.473Z,39.27
2019-05-17T03:11:43.378Z,45.93
2019-05-17T03:16:48.543Z,44.43
2019-05-17T03:21:53.665Z,41.87
2019-05-17T03:26:58.354Z,47.13
2019-05-17T03:32:08.303Z,41.47
2019-05-17T03:37:15.576Z,38.30
2019-05-17T03:42:16.702Z,38.23
2019-05-17T03:47:22.660Z,36.90
2019-05-17T03:52:27.719Z,35.20
2019-05-17T03:57:32.851Z,34.30
2019-05-17T04:02:37.514Z,36.13
2019-05-17T04:07:43.629Z,45.20
2019-05-17T04:12:48.606Z,49.40
2019-05-17T04:17:55.054Z,47.47
2019-05-17T04:23:03.804Z,30.23
2019-05-17T04:28:08.254Z,25.90
2019-05-17T04:33:13.061Z,26.73
2019-05-17T04:38:17.719Z,44.07
2019-05-17T04:43:23.171Z,35.23
2019-05-17T04:48:28.172Z,38.97
2019-05-17T04:53:33.318Z,34.40
2019-05-17T04:58:37.895Z,36.77
2019-05-17T05:03:43.112Z,33.13
2019-05-17T05:08:52.718Z,34.60
2019-05-17T05:13:56.096Z,35.93
2019-05-17T05:19:02.915Z,36.47
2019-05-17T05:24:07.075Z,28.47
2019-05-17T05:29:12.729Z,23.87
2019-05-17T05:34:17.620Z,29.73
2019-05-17T05:39:22.814Z,24.87
2019-05-17T05:44:27.811Z,27.70
2019-05-17T05:49:32.706Z,27.10
2019-05-17T05:54:37.503Z,21.17
2019-05-17T05:59:42.597Z,18.83
2019-05-17T06:04:47.175Z,16.20
2019-05-17T06:09:51.918Z,18.12
2019-05-17T06:14:56.400Z,15.35
2019-05-17T06:20:02.615Z,17.95
2019-05-17T06:25:07.789Z,17.92
2019-05-17T06:30:13.276Z,15.68
2019-05-17T06:35:18.527Z,14.47
2019-05-17T06:40:23.264Z,13.80
2019-05-17T06:45:28.038Z,20.17
2019-05-17T06:50:32.812Z,15.85
2019-05-17T06:55:37.441Z,13.45
2019-05-17T07:00:41.954Z,12.83
2019-05-17T07:05:50.094Z,15.20
2019-05-17T07:10:54.367Z,14.10
2019-05-17T07:15:59.668Z,15.10
2019-05-17T07:21:05.567Z,11.83
2019-05-17T07:26:12.089Z,11.70
2019-05-17T07:31:16.288Z,17.87
2019-05-17T07:36:21.021Z,11.78
2019-05-17T07:41:25.448Z,13.00
2019-05-17T07:46:29.965Z,11.73
2019-05-17T07:51:35.937Z,10.50
2019-05-17T07:56:41.720Z,11.17
2019-05-17T08:01:46.639Z,9.48
2019-05-17T08:06:51.807Z,9.10
2019-05-17T08:11:56.675Z,11.83
2019-05-17T08:17:01.189Z,10.88
2019-05-17T08:22:06.215Z,8.48
2019-05-17T08:27:10.896Z,8.35
2019-05-17T08:32:15.578Z,11.88
2019-05-17T08:37:20.527Z,9.13
2019-05-17T08:42:25.555Z,10.88
2019-05-17T08:47:30.287Z,10.45
2019-05-17T08:52:35.250Z,8.18
2019-05-17T08:57:40.360Z,9.70
2019-05-17T09:02:44.944Z,9.38
2019-05-17T09:07:49.482Z,9.33
2019-05-17T09:12:55.798Z,10.15
2019-05-17T09:18:00.662Z,7.72
2019-05-17T09:23:05.263Z,8.35
2019-05-17T09:28:10.436Z,6.62
2019-05-17T09:33:14.953Z,8.90
2019-05-17T09:38:20.407Z,7.05
2019-05-17T09:43:25.365Z,9.83
2019-05-17T09:48:30.641Z,9.68
2019-05-17T09:53:35.587Z,7.28
2019-05-17T09:58:40.457Z,6.85
2019-05-17T10:03:45.284Z,9.83
2019-05-17T10:08:50.321Z,12.10
2019-05-17T10:13:58.297Z,5.57
2019-05-17T10:19:01.499Z,5.92
2019-05-17T10:24:06.343Z,4.10
2019-05-17T10:29:11.284Z,6.12
2019-05-17T10:34:15.992Z,4.57
2019-05-17T10:39:20.698Z,3.30
2019-05-17T10:44:38.875Z,5.28
2019-05-17T10:49:32.392Z,3.55
2019-05-17T10:54:40.239Z,3.08
2019-05-17T10:59:44.591Z,10.03
2019-05-17T11:04:50.547Z,5.40
2019-05-17T11:09:55.466Z,9.10
2019-05-17T11:15:10.389Z,4.78
2019-05-17T11:20:06.861Z,6.15
2019-05-17T11:25:11.693Z,9.40
2019-05-17T11:30:16.675Z,7.08
2019-05-17T11:35:24.817Z,5.40
2019-05-17T11:40:32.253Z,2.95
2019-05-17T11:45:36.701Z,5.08
2019-05-17T11:50:41.857Z,3.58
2019-05-17T11:55:47.041Z,23.65
2019-05-17T12:00:51.890Z,2.35
2019-05-17T12:05:56.837Z,3.40
2019-05-17T12:11:02.212Z,3.77
2019-05-17T12:16:08.110Z,3.30
2019-05-17T12:21:12.936Z,2.17
2019-05-17T12:26:17.878Z,6.62
2019-05-17T12:31:22.838Z,6.03
2019-05-17T12:36:27.345Z,3.30
2019-05-17T12:41:31.911Z,5.47
2019-05-17T12:46:36.632Z,3.70
2019-05-17T12:51:41.012Z,3.25
2019-05-17T12:56:45.965Z,3.20
2019-05-17T13:01:50.558Z,2.53
2019-05-17T13:06:55.734Z,3.08
2019-05-17T13:12:00.347Z,2.20
2019-05-17T13:17:05.194Z,1.82
2019-05-17T13:22:09.935Z,3.60
2019-05-17T13:27:15.074Z,2.77
2019-05-17T13:32:19.662Z,10.25
2019-05-17T13:37:24.707Z,2.73
2019-05-17T13:42:29.269Z,2.05
2019-05-17T13:47:34.558Z,1.47
2019-05-17T13:52:39.231Z,1.15
2019-05-17T13:57:44.111Z,2.62
2019-05-17T14:02:49.238Z,2.17
2019-05-17T14:07:54.017Z,2.33
2019-05-17T14:12:59.065Z,2.75
2019-05-17T14:18:03.871Z,6.87
2019-05-17T14:23:08.598Z,3.75
2019-05-17T14:28:13.364Z,3.12
2019-05-17T14:33:17.888Z,5.05
2019-05-17T14:38:22.859Z,6.70
2019-05-17T14:43:31.270Z,2.62
2019-05-17T14:48:34.588Z,4.08
2019-05-17T14:53:39.328Z,2.52
2019-05-17T14:58:43.787Z,4.33
2019-05-17T15:03:48.276Z,10.00
2019-05-17T15:08:53.453Z,5.45
2019-05-17T15:13:58.367Z,5.10
2019-05-17T15:19:02.933Z,13.07
2019-05-17T15:24:07.473Z,7.33
2019-05-17T15:29:11.893Z,5.37
2019-05-17T15:34:16.460Z,6.13
2019-05-17T15:39:21.438Z,4.87
2019-05-17T15:44:27.089Z,4.10
2019-05-17T15:49:32.063Z,4.03
2019-05-17T15:54:37.165Z,6.33
2019-05-17T15:59:42.526Z,3.53
2019-05-17T16:04:47.333Z,2.73
2019-05-17T16:09:55.052Z,3.73
2019-05-17T16:14:59.787Z,12.10
2019-05-17T16:20:04.850Z,10.40
2019-05-17T16:25:09.741Z,3.30
2019-05-17T16:30:15.161Z,4.58
2019-05-17T16:35:20.113Z,2.35
2019-05-17T16:40:25.363Z,2.15
2019-05-17T16:45:29.978Z,4.50
2019-05-17T16:50:34.618Z,2.35
2019-05-17T16:55:39.773Z,2.45
2019-05-17T17:00:45.005Z,2.10
2019-05-17T17:05:50.896Z,1.27
2019-05-17T17:10:55.713Z,1.70
2019-05-17T17:16:03.118Z,3.87
2019-05-17T17:21:08.378Z,4.35
2019-05-17T17:26:13.696Z,2.05
2019-05-17T17:31:18.511Z,9.25
2019-05-17T17:36:22.977Z,3.70
2019-05-17T17:41:28.492Z,3.80
2019-05-17T17:46:32.923Z,3.20
2019-05-17T17:51:37.630Z,4.28
2019-05-17T17:56:42.587Z,4.77
2019-05-17T18:01:47.777Z,3.40
2019-05-17T18:06:52.250Z,3.12
2019-05-17T18:11:57.070Z,3.10
2019-05-17T18:17:01.918Z,2.93
2019-05-17T18:22:11.920Z,2.67
2019-05-17T18:27:17.688Z,2.80
2019-05-17T18:32:22.931Z,3.93
2019-05-17T18:37:28.660Z,4.10
2019-05-17T18:42:34.260Z,4.73
2019-05-17T18:47:39.251Z,6.70
2019-05-17T18:52:44.409Z,5.47
2019-05-17T18:57:50.850Z,4.53
2019-05-17T19:02:55.909Z,4.70
2019-05-17T19:08:01.151Z,5.60
2019-05-17T19:13:05.894Z,10.10
2019-05-17T19:18:12.067Z,6.63
2019-05-17T19:23:20.312Z,4.83
2019-05-17T19:28:25.009Z,6.93
2019-05-17T19:33:29.643Z,6.83
2019-05-17T19:38:34.626Z,4.67
2019-05-17T19:43:43.986Z,5.40
2019-05-17T19:48:49.673Z,5.40
2019-05-17T19:53:54.638Z,5.97
2019-05-17T19:59:00.345Z,7.97
2019-05-17T20:04:05.968Z,11.67
2019-05-17T20:09:11.163Z,9.43
2019-05-17T20:14:16.769Z,9.27
2019-05-17T20:19:21.579Z,12.03
2019-05-17T20:24:26.907Z,9.47
2019-05-17T20:29:31.643Z,9.07
2019-05-17T20:34:36.867Z,9.57
2019-05-17T20:39:42.382Z,11.07
2019-05-17T20:44:47.240Z,9.83
2019-05-17T20:49:51.631Z,13.03
2019-05-17T20:54:56.721Z,11.87
2019-05-17T21:00:01.896Z,13.23
2019-05-17T21:05:06.564Z,10.00
2019-05-17T21:10:13.078Z,13.83
2019-05-17T21:15:17.631Z,13.67
2019-05-17T21:20:22.422Z,11.00
2019-05-17T21:25:26.981Z,9.27
2019-05-17T21:30:31.993Z,13.43
2019-05-17T21:35:37.244Z,12.87
2019-05-17T21:40:42.635Z,10.30
2019-05-17T21:46:01.155Z,10.07
2019-05-17T21:50:53.729Z,8.13
2019-05-17T21:55:58.170Z,8.27
2019-05-17T22:01:16.915Z,10.13
2019-05-17T22:06:21.990Z,10.13
2019-05-17T22:11:26.578Z,10.43
2019-05-17T22:16:31.331Z,8.30
2019-05-17T22:21:36.172Z,10.57
2019-05-17T22:26:41.061Z,9.20
2019-05-17T22:31:46.565Z,10.90
2019-05-17T22:36:51.801Z,11.67
2019-05-17T22:41:56.707Z,12.17
2019-05-17T22:47:02.102Z,13.70
2019-05-17T22:52:06.786Z,15.57
2019-05-17T22:57:11.788Z,16.20
2019-05-17T23:02:16.535Z,14.67
2019-05-17T23:07:21.083Z,15.63
2019-05-17T23:12:25.714Z,13.23
2019-05-17T23:17:30.506Z,13.43
2019-05-17T23:22:34.943Z,14.87
2019-05-17T23:27:42.603Z,20.37
2019-05-17T23:32:47.108Z,15.90
2019-05-17T23:37:52.427Z,14.60
2019-05-17T23:42:57.155Z,11.37
2019-05-17T23:48:01.592Z,12.73
2019-05-17T23:53:06.331Z,11.57
2019-05-17T23:58:11.078Z,11.40
